Time;durP1;ratioP1;P1;durP2;ratioP2;P2;SDS_P1;SDS_P2;PMS_P1;PMS_P2;Temp;Humidity;BMP_temperature;BMP_pressure;BME280_temperature;BME280_humidity;BME280_pressure;Samples;Min_cycle;Max_cycle;Signal;HPM_P1;HPM_P2
2022/11/03 00:01:32;;;;;;;12.05;3.35;;;11.80;99.90;;;;;;4940681;29;20661;-80
2022/11/03 00:03:58;;;;;;;10.98;2.42;;;11.90;99.90;;;;;;4907147;29;20388;-81
2022/11/03 00:06:24;;;;;;;9.50;2.83;;;11.80;99.90;;;;;;4922136;29;20109;-80
2022/11/03 00:08:50;;;;;;;12.80;2.67;;;11.80;99.90;;;;;;4922637;29;20118;-82
2022/11/03 00:11:19;;;;;;;11.32;2.25;;;11.80;99.90;;;;;;4934715;29;20126;-81
2022/11/03 00:13:45;;;;;;;10.23;2.42;;;11.80;99.90;;;;;;4895048;29;20040;-81
2022/11/03 00:16:14;;;;;;;17.20;3.03;;;11.90;99.90;;;;;;4918552;29;20039;-80
2022/11/03 00:18:43;;;;;;;12.02;2.53;;;11.90;99.90;;;;;;4919204;29;20044;-80
2022/11/03 00:21:12;;;;;;;15.23;3.53;;;11.90;99.90;;;;;;4919831;29;20047;-80
2022/11/03 00:23:40;;;;;;;9.75;2.42;;;11.90;99.90;;;;;;4952452;29;20073;-81
2022/11/03 00:26:15;;;;;;;15.10;2.90;;;11.80;99.90;;;;;;4921340;29;20082;-80
2022/11/03 00:28:44;;;;;;;14.90;3.08;;;11.80;99.90;;;;;;4921663;29;20089;-81
2022/11/03 00:31:16;;;;;;;13.80;2.50;;;11.70;99.90;;;;;;4921566;29;20044;-81
2022/11/03 00:33:42;;;;;;;14.15;3.05;;;11.60;99.90;;;;;;4921921;29;20044;-80
2022/11/03 00:36:15;;;;;;;13.57;2.65;;;11.70;99.90;;;;;;4936436;29;20055;-81
2022/11/03 00:38:45;;;;;;;13.57;2.80;;;11.70;99.90;;;;;;4941329;29;20051;-86
2022/11/03 00:41:11;;;;;;;10.10;2.58;;;11.60;99.90;;;;;;4941616;29;20070;-86
2022/11/03 00:43:37;;;;;;;10.95;2.88;;;11.60;99.90;;;;;;4938882;29;20122;-85
2022/11/03 00:46:05;;;;;;;8.82;2.60;;;11.70;99.90;;;;;;4939196;29;20416;-85
2022/11/03 00:48:32;;;;;;;14.65;2.40;;;11.60;99.90;;;;;;4940416;29;20039;-85
2022/11/03 00:51:24;;;;;;;12.27;2.85;;;11.50;99.90;;;;;;4940797;29;20043;-84
2022/11/03 00:53:55;;;;;;;10.07;2.60;;;11.50;99.90;;;;;;4944516;29;20039;-85
2022/11/03 00:56:27;;;;;;;11.88;2.50;;;11.50;99.90;;;;;;4961279;29;20049;-85
2022/11/03 00:58:54;;;;;;;11.63;2.30;;;11.50;99.90;;;;;;4961646;29;20074;-85
2022/11/03 01:01:25;;;;;;;15.23;2.60;;;11.50;99.90;;;;;;4969549;29;20134;-85
2022/11/03 01:06:50;;;;;;;12.40;2.72;;;11.40;99.90;;;;;;4956107;29;20039;-84
2022/11/03 01:09:25;;;;;;;12.75;3.15;;;11.40;99.90;;;;;;4957427;29;20072;-85
2022/11/03 01:11:58;;;;;;;12.80;2.60;;;11.30;99.90;;;;;;4955361;29;20369;-84
2022/11/03 01:14:36;;;;;;;12.70;2.65;;;11.40;99.90;;;;;;4939178;29;20050;-85
2022/11/03 01:17:05;;;;;;;13.05;3.42;;;11.30;99.90;;;;;;4933707;29;20489;-84
2022/11/03 01:19:30;;;;;;;11.93;2.90;;;11.30;99.90;;;;;;4941976;29;20043;-85
2022/11/03 01:21:56;;;;;;;13.70;2.70;;;11.30;99.90;;;;;;4922321;29;20044;-85
2022/11/03 01:24:22;;;;;;;18.20;3.35;;;11.20;99.90;;;;;;4938730;29;20039;-84
2022/11/03 01:26:48;;;;;;;9.55;1.88;;;11.20;99.90;;;;;;4940378;29;20036;-84
2022/11/03 01:29:14;;;;;;;14.70;3.35;;;11.20;99.90;;;;;;4925599;29;20043;-84
2022/11/03 01:31:40;;;;;;;19.35;2.90;;;11.20;99.90;;;;;;4940920;29;20456;-86
2022/11/03 01:34:06;;;;;;;15.80;3.03;;;11.30;99.90;;;;;;4944466;29;20047;-83
2022/11/03 01:36:31;;;;;;;11.98;2.60;;;11.20;99.90;;;;;;4961704;29;20054;-83
2022/11/03 01:38:57;;;;;;;16.15;3.22;;;11.20;99.90;;;;;;4926275;29;20115;-83
2022/11/03 01:41:26;;;;;;;13.25;2.97;;;11.20;99.90;;;;;;4922321;29;20523;-85
2022/11/03 01:44:07;;;;;;;10.07;2.30;;;11.20;99.90;;;;;;4943761;29;20130;-84
2022/11/03 01:46:45;;;;;;;10.82;2.33;;;11.20;99.90;;;;;;4941914;29;20425;-84
2022/11/03 01:49:17;;;;;;;17.00;2.95;;;11.10;99.90;;;;;;4923018;29;20036;-84
2022/11/03 01:51:47;;;;;;;13.07;3.15;;;11.10;99.90;;;;;;4938874;29;20051;-84
2022/11/03 01:54:18;;;;;;;12.95;3.22;;;11.00;99.90;;;;;;4938025;29;20058;-84
2022/11/03 01:56:45;;;;;;;18.38;2.90;;;11.10;99.90;;;;;;4922290;29;20130;-85
2022/11/03 01:59:12;;;;;;;12.48;3.58;;;11.10;99.90;;;;;;4936635;29;20043;-84
2022/11/03 02:01:38;;;;;;;9.13;2.50;;;11.10;99.90;;;;;;4938450;29;20036;-86
2022/11/03 02:04:11;;;;;;;14.65;2.50;;;11.00;99.90;;;;;;4940985;29;20050;-84
2022/11/03 02:06:37;;;;;;;14.60;2.25;;;11.00;99.90;;;;;;4953713;29;20052;-84
2022/11/03 02:09:05;;;;;;;18.58;3.53;;;11.00;99.90;;;;;;4934849;29;20130;-84
2022/11/03 02:14:17;;;;;;;14.60;2.83;;;11.00;99.90;;;;;;4956746;28;20055;-84
2022/11/03 02:16:55;;;;;;;17.25;3.00;;;10.90;99.90;;;;;;4925261;29;20057;-85
2022/11/03 02:19:53;;;;;;;16.42;2.78;;;11.00;99.90;;;;;;4940253;29;20047;-85
2022/11/03 02:22:48;;;;;;;14.57;2.85;;;11.00;99.90;;;;;;4957056;29;20047;-85
2022/11/03 02:25:50;;;;;;;12.57;2.58;;;11.10;99.90;;;;;;4955925;29;20043;-85
2022/11/03 02:28:34;;;;;;;9.63;2.75;;;11.00;99.90;;;;;;4956628;29;20491;-85
2022/11/03 02:31:18;;;;;;;13.15;2.50;;;11.00;99.90;;;;;;4921656;29;20042;-84
2022/11/03 02:34:17;;;;;;;11.88;2.72;;;11.10;99.90;;;;;;4932642;29;20046;-85
2022/11/03 02:36:58;;;;;;;14.55;2.70;;;11.10;99.90;;;;;;4941063;29;20043;-85
2022/11/03 02:39:40;;;;;;;8.73;2.40;;;11.10;99.90;;;;;;4953428;29;20527;-85
2022/11/03 02:42:08;;;;;;;13.80;2.83;;;11.30;99.90;;;;;;4937654;29;20050;-85
2022/11/03 02:44:35;;;;;;;15.00;2.55;;;11.20;99.90;;;;;;4948475;29;20107;-85
2022/11/03 02:47:06;;;;;;;11.52;2.78;;;11.20;99.90;;;;;;4924661;29;20445;-85
2022/11/03 02:49:38;;;;;;;16.15;2.92;;;11.10;99.90;;;;;;4940393;29;20050;-85
2022/11/03 02:52:05;;;;;;;14.25;2.50;;;11.20;99.90;;;;;;4937126;29;20044;-85
2022/11/03 02:54:40;;;;;;;12.68;3.13;;;11.20;99.90;;;;;;4921350;29;20046;-85
2022/11/03 02:57:17;;;;;;;15.73;3.08;;;11.20;99.90;;;;;;4949265;29;20565;-85
2022/11/03 03:00:05;;;;;;;13.38;3.15;;;11.20;99.90;;;;;;4956707;29;20051;-84
2022/11/03 03:02:46;;;;;;;13.25;2.95;;;11.20;99.90;;;;;;4940973;29;20039;-85
2022/11/03 03:05:14;;;;;;;11.82;2.95;;;11.10;99.90;;;;;;4956100;29;20086;-85
2022/11/03 03:07:45;;;;;;;13.40;3.17;;;11.20;99.90;;;;;;4934548;29;20123;-85
2022/11/03 03:10:20;;;;;;;11.63;2.70;;;11.20;99.90;;;;;;4948326;29;20521;-85
2022/11/03 03:12:51;;;;;;;13.35;2.65;;;11.20;99.90;;;;;;4936751;29;20055;-85
2022/11/03 03:15:20;;;;;;;13.60;3.58;;;11.20;99.90;;;;;;4921051;29;20388;-85
2022/11/03 03:17:55;;;;;;;10.35;2.70;;;11.80;99.90;;;;;;4936447;29;20489;-85
2022/11/03 03:20:31;;;;;;;11.32;2.47;;;11.30;99.90;;;;;;4935796;29;20101;-85
2022/11/03 03:23:18;;;;;;;9.68;2.60;;;11.20;99.90;;;;;;4938953;29;20043;-85
2022/11/03 03:25:50;;;;;;;15.15;2.83;;;11.20;99.90;;;;;;4939521;29;20043;-85
2022/11/03 03:28:31;;;;;;;13.55;3.20;;;11.20;99.90;;;;;;4955320;29;20118;-86
2022/11/03 03:31:00;;;;;;;10.40;2.75;;;11.20;99.90;;;;;;4939054;29;20044;-85
2022/11/03 03:33:27;;;;;;;11.75;3.45;;;11.20;99.90;;;;;;4954562;29;20069;-85
2022/11/03 03:35:55;;;;;;;12.65;2.38;;;11.20;99.90;;;;;;4923211;29;20409;-85
2022/11/03 03:38:30;;;;;;;14.43;3.28;;;11.10;99.90;;;;;;4938563;29;20047;-83
2022/11/03 03:40:58;;;;;;;19.65;2.92;;;11.10;99.90;;;;;;4954905;29;20043;-85
2022/11/03 03:43:27;;;;;;;9.15;2.58;;;11.30;99.90;;;;;;4939612;29;20050;-85
2022/11/03 03:45:57;;;;;;;11.18;2.58;;;11.20;99.90;;;;;;4939137;29;20039;-85
2022/11/03 03:48:23;;;;;;;10.63;2.90;;;11.20;99.90;;;;;;4953027;29;20395;-85
2022/11/03 03:50:49;;;;;;;12.82;2.38;;;11.10;99.90;;;;;;4919935;29;20122;-85
2022/11/03 03:53:18;;;;;;;14.30;2.63;;;11.10;99.90;;;;;;4936672;29;20122;-84
2022/11/03 03:55:47;;;;;;;12.45;3.20;;;11.10;99.90;;;;;;4938932;29;20043;-85
2022/11/03 03:58:14;;;;;;;16.48;3.40;;;11.30;99.90;;;;;;4938983;29;20448;-84
2022/11/03 04:00:40;;;;;;;10.55;2.50;;;11.20;99.90;;;;;;4935536;29;20075;-85
2022/11/03 04:03:16;;;;;;;15.88;3.20;;;11.20;99.90;;;;;;4952863;29;20031;-85
2022/11/03 04:05:42;;;;;;;16.52;3.38;;;11.30;99.90;;;;;;4938706;29;20073;-84
2022/11/03 04:08:09;;;;;;;12.55;2.70;;;11.10;99.90;;;;;;4939170;29;20040;-84
2022/11/03 04:10:35;;;;;;;10.75;2.50;;;11.20;99.90;;;;;;4955470;29;20384;-84
2022/11/03 04:23:46;;;;;;;15.13;3.72;;;11.20;99.90;;;;;;4941024;29;20039;-84
2022/11/03 04:26:15;;;;;;;13.27;3.05;;;11.10;99.90;;;;;;4923069;29;20555;-85
2022/11/03 04:28:41;;;;;;;16.55;2.92;;;11.20;99.90;;;;;;4938791;29;20392;-84
2022/11/03 04:31:15;;;;;;;9.60;2.47;;;11.30;99.90;;;;;;4954615;29;20129;-85
2022/11/03 04:33:41;;;;;;;12.20;2.85;;;11.20;99.90;;;;;;4932304;29;20044;-84
2022/11/03 04:36:21;;;;;;;11.27;2.80;;;11.20;99.90;;;;;;4939599;29;20102;-84
2022/11/03 04:38:47;;;;;;;14.88;3.03;;;11.20;99.90;;;;;;4972869;28;20054;-84
2022/11/03 04:41:18;;;;;;;10.82;2.13;;;11.20;99.90;;;;;;4958342;29;20056;-84
2022/11/03 04:43:45;;;;;;;10.45;3.03;;;11.20;99.90;;;;;;4942670;29;20039;-85
2022/11/03 04:46:24;;;;;;;11.85;3.17;;;11.20;99.90;;;;;;4942312;29;20044;-84
2022/11/03 04:48:52;;;;;;;9.73;2.10;;;11.20;99.90;;;;;;4958085;28;20097;-84
2022/11/03 04:51:21;;;;;;;11.02;2.65;;;11.20;99.90;;;;;;4928260;29;20050;-85
2022/11/03 04:53:54;;;;;;;13.00;2.50;;;11.30;99.90;;;;;;4946615;29;20039;-84
2022/11/03 04:56:23;;;;;;;7.88;2.22;;;11.30;99.90;;;;;;4958947;29;20122;-84
2022/11/03 04:58:50;;;;;;;12.23;3.22;;;11.50;99.90;;;;;;4958522;29;20051;-84
2022/11/03 05:01:19;;;;;;;15.55;2.97;;;11.30;99.90;;;;;;4923039;29;20053;-84
2022/11/03 05:03:48;;;;;;;12.02;2.20;;;11.40;99.90;;;;;;4939272;29;20044;-84
2022/11/03 05:06:28;;;;;;;12.80;2.72;;;11.40;99.90;;;;;;4923140;29;20043;-84
2022/11/03 05:09:09;;;;;;;14.10;2.90;;;11.30;99.90;;;;;;4923137;29;20466;-84
2022/11/03 05:11:41;;;;;;;10.55;3.45;;;11.30;99.90;;;;;;4927016;29;20043;-84
2022/11/03 05:14:22;;;;;;;9.05;2.50;;;11.30;99.90;;;;;;4941798;29;20075;-84
2022/11/03 05:16:50;;;;;;;11.13;2.40;;;11.30;99.90;;;;;;4942111;29;20070;-84
2022/11/03 05:19:31;;;;;;;11.32;2.45;;;11.20;99.90;;;;;;4943741;29;20039;-84
2022/11/03 05:22:01;;;;;;;13.45;3.50;;;11.30;99.90;;;;;;4943868;29;20042;-84
2022/11/03 05:24:26;;;;;;;8.18;1.98;;;11.30;99.90;;;;;;4953814;29;20034;-84
2022/11/03 05:26:54;;;;;;;10.27;2.55;;;11.30;99.90;;;;;;4949186;29;20094;-84
2022/11/03 05:29:24;;;;;;;11.93;2.97;;;11.30;99.90;;;;;;4963823;28;20086;-84
2022/11/03 05:31:51;;;;;;;14.25;2.95;;;11.30;99.90;;;;;;4960064;29;20042;-84
2022/11/03 05:34:29;;;;;;;12.23;2.42;;;11.30;99.90;;;;;;4942801;29;20039;-83
2022/11/03 05:37:28;;;;;;;11.60;2.75;;;11.30;99.90;;;;;;4942180;29;20040;-84
2022/11/03 05:40:18;;;;;;;10.02;2.20;;;11.30;99.90;;;;;;4935299;29;20059;-84
2022/11/03 05:42:45;;;;;;;11.90;2.65;;;11.40;99.90;;;;;;4941304;29;20058;-85
2022/11/03 05:45:15;;;;;;;9.32;1.95;;;11.40;99.90;;;;;;4956966;28;20101;-85
2022/11/03 05:47:41;;;;;;;13.32;2.90;;;11.40;99.90;;;;;;4941471;29;20079;-85
2022/11/03 05:50:40;;;;;;;12.70;2.58;;;11.40;99.90;;;;;;4940072;29;20386;-85
2022/11/03 05:53:17;;;;;;;9.32;2.25;;;11.40;99.90;;;;;;4941237;29;20087;-84
2022/11/03 05:55:43;;;;;;;6.55;2.10;;;11.40;99.90;;;;;;4941934;29;20400;-83
2022/11/03 05:58:43;;;;;;;14.82;3.00;;;11.40;99.90;;;;;;4923074;29;20039;-84
2022/11/03 06:01:31;;;;;;;13.43;2.90;;;11.40;99.90;;;;;;4940484;29;20484;-84
2022/11/03 06:03:59;;;;;;;9.32;2.00;;;11.30;99.90;;;;;;4957660;29;20094;-84
2022/11/03 06:06:33;;;;;;;11.55;2.30;;;11.40;99.90;;;;;;4925743;29;20039;-84
2022/11/03 06:09:02;;;;;;;14.23;3.03;;;11.50;99.90;;;;;;4953409;29;20054;-83
2022/11/03 06:11:35;;;;;;;9.93;2.63;;;11.50;99.90;;;;;;4923186;29;20395;-84
2022/11/03 06:14:04;;;;;;;13.55;2.90;;;11.50;99.90;;;;;;4941394;29;20047;-84
2022/11/03 06:16:40;;;;;;;9.90;2.20;;;11.50;99.90;;;;;;4941214;29;20039;-84
2022/11/03 06:19:23;;;;;;;7.25;2.40;;;11.40;99.90;;;;;;4941113;29;20047;-84
2022/11/03 06:21:52;;;;;;;11.48;2.67;;;11.40;99.90;;;;;;4956633;29;20039;-86
2022/11/03 06:24:20;;;;;;;12.70;3.25;;;11.30;99.90;;;;;;4940968;29;20043;-85
2022/11/03 06:26:48;;;;;;;9.38;2.30;;;11.30;99.90;;;;;;4941248;29;20054;-84
2022/11/03 06:29:17;;;;;;;15.15;3.20;;;11.30;99.90;;;;;;4957335;29;20043;-84
2022/11/03 06:31:46;;;;;;;14.45;2.88;;;11.20;99.90;;;;;;4957026;29;20049;-84
2022/11/03 06:34:34;;;;;;;9.48;2.55;;;11.30;99.90;;;;;;4940847;29;20049;-84
2022/11/03 06:37:12;;;;;;;12.15;2.63;;;11.30;99.90;;;;;;4956999;29;20130;-85
2022/11/03 06:39:38;;;;;;;10.10;2.45;;;11.30;99.90;;;;;;4940625;29;20047;-85
2022/11/03 06:42:12;;;;;;;12.88;2.58;;;11.30;99.90;;;;;;4926148;29;20050;-84
2022/11/03 06:44:41;;;;;;;11.10;2.70;;;11.30;99.90;;;;;;4939587;29;20107;-85
2022/11/03 06:47:25;;;;;;;9.93;2.00;;;11.30;99.90;;;;;;4941078;29;20098;-84
2022/11/03 06:49:56;;;;;;;10.98;2.47;;;11.30;99.90;;;;;;4940512;29;20126;-84
2022/11/03 06:52:30;;;;;;;10.68;2.30;;;11.30;99.90;;;;;;4941883;29;20047;-85
2022/11/03 06:55:08;;;;;;;16.00;3.10;;;11.30;99.90;;;;;;4940938;29;20105;-84
2022/11/03 06:57:38;;;;;;;12.82;2.35;;;11.30;99.90;;;;;;4956664;28;20046;-84
2022/11/03 07:00:16;;;;;;;9.82;2.95;;;11.30;99.90;;;;;;4956542;29;20138;-86
2022/11/03 07:02:43;;;;;;;8.45;2.13;;;11.40;99.90;;;;;;4941690;29;20055;-84
2022/11/03 07:05:21;;;;;;;13.20;3.22;;;11.40;99.90;;;;;;4940886;29;20047;-84
2022/11/03 07:07:46;;;;;;;11.18;2.05;;;11.40;99.90;;;;;;4956912;29;20031;-84
2022/11/03 07:10:13;;;;;;;11.18;2.63;;;11.50;99.90;;;;;;4925488;29;20035;-86
2022/11/03 07:12:40;;;;;;;11.70;2.25;;;11.50;99.90;;;;;;4940665;29;20036;-84
2022/11/03 07:15:20;;;;;;;12.93;2.30;;;11.60;99.90;;;;;;4940660;29;20508;-83
2022/11/03 07:17:46;;;;;;;9.73;2.33;;;11.60;99.90;;;;;;4940919;29;20086;-83
2022/11/03 07:20:15;;;;;;;11.35;2.65;;;11.60;99.90;;;;;;4951942;29;20083;-84
2022/11/03 07:22:41;;;;;;;8.25;2.58;;;11.60;99.90;;;;;;4920673;29;20109;-84
2022/11/03 07:25:19;;;;;;;8.55;2.25;;;11.60;99.90;;;;;;4933578;29;20065;-84
2022/11/03 07:27:48;;;;;;;12.15;3.17;;;11.60;99.90;;;;;;4940476;29;20122;-85
2022/11/03 07:30:28;;;;;;;10.60;2.83;;;11.60;99.90;;;;;;4948123;28;20499;-84
2022/11/03 07:33:00;;;;;;;12.25;2.85;;;11.70;99.90;;;;;;4955634;29;20051;-83
2022/11/03 07:35:30;;;;;;;11.15;2.70;;;11.70;99.90;;;;;;4943431;29;20079;-83
2022/11/03 07:37:59;;;;;;;11.18;2.40;;;11.80;99.90;;;;;;4952385;29;20059;-84
2022/11/03 07:40:26;;;;;;;12.85;2.72;;;11.80;99.90;;;;;;4937181;29;20047;-84
2022/11/03 07:43:00;;;;;;;13.23;2.40;;;11.80;99.90;;;;;;4918482;29;20066;-85
2022/11/03 07:45:35;;;;;;;8.57;2.50;;;11.90;99.90;;;;;;4945284;29;20046;-84
2022/11/03 07:48:25;;;;;;;12.63;2.85;;;11.90;99.90;;;;;;4956556;29;20365;-86
2022/11/03 07:50:53;;;;;;;7.95;2.25;;;12.00;99.90;;;;;;4920963;29;20078;-86
2022/11/03 07:53:41;;;;;;;13.88;2.58;;;12.00;99.90;;;;;;4930105;29;20062;-85
2022/11/03 07:56:22;;;;;;;9.43;2.88;;;12.10;99.90;;;;;;4955821;29;20032;-86
2022/11/03 07:59:12;;;;;;;9.27;2.15;;;12.10;99.90;;;;;;4956314;29;20039;-85
2022/11/03 08:01:41;;;;;;;15.63;3.45;;;12.20;99.90;;;;;;4939128;29;20098;-86
2022/11/03 08:04:10;;;;;;;14.63;2.97;;;12.20;99.90;;;;;;4956047;29;20476;-86
2022/11/03 08:06:36;;;;;;;8.10;2.78;;;12.20;99.90;;;;;;4956369;29;20059;-87
2022/11/03 08:09:03;;;;;;;14.63;3.35;;;12.30;99.90;;;;;;4923371;29;20043;-85
2022/11/03 08:11:29;;;;;;;14.38;2.75;;;12.40;99.90;;;;;;4922234;29;20047;-84
2022/11/03 08:13:54;;;;;;;14.57;2.75;;;12.40;99.90;;;;;;4939389;29;20044;-85
2022/11/03 08:16:20;;;;;;;20.02;2.70;;;12.40;99.90;;;;;;4955496;29;20066;-87
2022/11/03 08:18:46;;;;;;;9.90;2.78;;;12.50;99.90;;;;;;4906281;29;20105;-83
2022/11/03 08:21:12;;;;;;;9.63;3.00;;;12.50;99.90;;;;;;4939252;29;20105;-83
2022/11/03 08:23:38;;;;;;;10.95;2.95;;;12.50;99.90;;;;;;4923306;29;20557;-83
2022/11/03 08:26:04;;;;;;;9.90;2.20;;;12.60;99.90;;;;;;4923696;29;20041;-85
2022/11/03 08:28:32;;;;;;;14.15;3.00;;;12.60;99.90;;;;;;4923091;29;20039;-84
2022/11/03 08:31:03;;;;;;;9.52;2.50;;;12.60;99.90;;;;;;4955155;29;20047;-84
2022/11/03 08:33:33;;;;;;;12.63;2.15;;;12.70;99.90;;;;;;4955144;29;20043;-84
2022/11/03 08:36:00;;;;;;;14.68;2.88;;;12.70;99.90;;;;;;4938969;29;20502;-83
2022/11/03 08:38:26;;;;;;;10.63;2.72;;;12.80;99.90;;;;;;4922686;29;20106;-83
2022/11/03 08:40:54;;;;;;;10.65;3.20;;;12.70;99.90;;;;;;4954825;29;20056;-83
2022/11/03 08:43:19;;;;;;;11.82;2.75;;;12.80;99.90;;;;;;4923325;29;20086;-84
2022/11/03 08:45:45;;;;;;;12.00;2.55;;;12.80;99.90;;;;;;4919520;29;20459;-84
2022/11/03 08:48:12;;;;;;;9.07;2.60;;;12.80;99.90;;;;;;4935637;29;20048;-84
2022/11/03 08:50:37;;;;;;;13.43;2.78;;;12.80;99.90;;;;;;4950324;29;20047;-85
2022/11/03 08:53:03;;;;;;;12.32;2.67;;;12.80;99.90;;;;;;4954317;29;20046;-84
2022/11/03 08:55:29;;;;;;;16.45;3.03;;;12.80;99.90;;;;;;4935623;29;20130;-83
2022/11/03 08:57:54;;;;;;;8.05;2.60;;;12.90;99.90;;;;;;4921263;29;20081;-84
2022/11/03 09:00:21;;;;;;;10.13;2.60;;;12.90;99.90;;;;;;4937165;28;20047;-84
2022/11/03 09:02:47;;;;;;;8.70;2.65;;;13.00;99.90;;;;;;4920896;29;20054;-84
2022/11/03 09:05:13;;;;;;;12.25;3.40;;;13.00;99.90;;;;;;4919010;29;20043;-83
2022/11/03 09:07:39;;;;;;;8.27;2.67;;;13.10;99.90;;;;;;4914942;29;20058;-82
2022/11/03 09:10:07;;;;;;;10.20;2.55;;;13.10;99.90;;;;;;4932318;29;20044;-82
2022/11/03 09:12:33;;;;;;;12.63;3.10;;;13.10;99.90;;;;;;4951114;29;20055;-82
2022/11/03 09:14:58;;;;;;;9.50;3.17;;;13.10;99.90;;;;;;4952937;29;20043;-83
2022/11/03 09:17:24;;;;;;;13.38;2.75;;;13.20;99.90;;;;;;4921622;29;20055;-83
2022/11/03 09:19:50;;;;;;;12.07;2.85;;;13.20;99.90;;;;;;4916664;29;20059;-82
2022/11/03 09:22:16;;;;;;;14.88;2.75;;;13.20;99.90;;;;;;4936178;29;20102;-83
2022/11/03 09:24:41;;;;;;;9.18;2.63;;;13.30;99.90;;;;;;4919613;29;20035;-83
2022/11/03 09:27:07;;;;;;;9.55;2.28;;;13.40;99.90;;;;;;4907868;29;20051;-83
2022/11/03 09:29:33;;;;;;;8.95;3.03;;;13.40;99.90;;;;;;4940065;29;20054;-84
2022/11/03 09:31:59;;;;;;;12.70;2.90;;;13.40;99.90;;;;;;4940160;28;20043;-82
2022/11/03 09:34:24;;;;;;;12.27;2.60;;;13.50;99.90;;;;;;4939563;29;20103;-82
2022/11/03 09:36:50;;;;;;;9.60;2.65;;;13.50;99.90;;;;;;4925819;29;20460;-82
2022/11/03 09:39:17;;;;;;;9.75;3.03;;;13.50;99.90;;;;;;4957089;29;20051;-82
2022/11/03 09:41:42;;;;;;;13.68;2.40;;;13.50;99.90;;;;;;4940338;29;20051;-82
2022/11/03 09:44:09;;;;;;;10.05;3.15;;;13.50;99.90;;;;;;4923371;29;20052;-82
2022/11/03 09:46:35;;;;;;;11.73;3.03;;;13.50;99.90;;;;;;4929167;29;20066;-83
2022/11/03 09:49:02;;;;;;;8.65;2.58;;;13.50;99.90;;;;;;4964485;28;20042;-83
2022/11/03 09:51:28;;;;;;;10.55;2.53;;;13.50;99.90;;;;;;4962907;29;20047;-83
2022/11/03 09:53:57;;;;;;;9.82;2.45;;;13.60;99.90;;;;;;4972797;28;20079;-83
2022/11/03 09:56:24;;;;;;;7.57;2.67;;;13.60;99.90;;;;;;4955313;28;20054;-83
2022/11/03 09:58:50;;;;;;;8.73;1.85;;;13.70;99.90;;;;;;4939311;29;20519;-84
2022/11/03 10:01:16;;;;;;;10.85;2.30;;;13.70;99.90;;;;;;4938735;29;20050;-79
2022/11/03 10:03:42;;;;;;;11.45;2.65;;;13.90;99.90;;;;;;4905946;28;20062;-80
2022/11/03 10:06:08;;;;;;;9.35;2.72;;;14.10;99.90;;;;;;4908153;29;20053;-80
2022/11/03 10:08:36;;;;;;;9.38;2.38;;;14.20;99.90;;;;;;4936569;29;20099;-79
2022/11/03 10:11:05;;;;;;;12.27;2.90;;;14.30;99.90;;;;;;4919877;29;20094;-80
2022/11/03 10:13:37;;;;;;;13.35;2.35;;;14.40;99.90;;;;;;4923425;29;20488;-79
2022/11/03 10:16:06;;;;;;;9.05;2.70;;;14.40;99.90;;;;;;4938541;29;20074;-79
2022/11/03 10:18:33;;;;;;;9.15;2.47;;;14.50;99.90;;;;;;4953254;29;20046;-79
2022/11/03 10:21:04;;;;;;;7.03;2.03;;;14.50;99.90;;;;;;4921799;29;20502;-79
2022/11/03 10:23:29;;;;;;;9.68;2.78;;;14.50;99.90;;;;;;4939886;29;20043;-80
2022/11/03 10:26:15;;;;;;;10.15;2.22;;;14.50;99.90;;;;;;4937908;29;20039;-79
2022/11/03 10:29:00;;;;;;;10.60;2.58;;;14.50;99.90;;;;;;4954948;29;20062;-79
2022/11/03 10:31:37;;;;;;;8.70;2.47;;;14.50;99.90;;;;;;4937236;29;20122;-79
2022/11/03 10:34:05;;;;;;;8.73;2.30;;;14.50;99.90;;;;;;4939280;29;20039;-79
2022/11/03 10:36:33;;;;;;;5.25;1.88;;;14.40;99.90;;;;;;4938796;29;20063;-79
2022/11/03 10:39:19;;;;;;;10.32;2.60;;;14.50;99.90;;;;;;4938550;29;20055;-79
2022/11/03 10:41:58;;;;;;;11.77;2.70;;;14.50;99.90;;;;;;4935622;29;20551;-79
2022/11/03 10:44:27;;;;;;;7.15;2.85;;;14.50;99.90;;;;;;4946407;29;20046;-79
2022/11/03 10:47:03;;;;;;;12.38;2.45;;;14.60;99.90;;;;;;4937550;29;20176;-79
2022/11/03 10:49:31;;;;;;;6.57;2.75;;;14.60;99.90;;;;;;4939410;29;20107;-79
2022/11/03 10:52:13;;;;;;;9.95;2.22;;;14.70;99.90;;;;;;4937072;29;20043;-79
2022/11/03 10:54:39;;;;;;;9.82;3.10;;;14.70;99.90;;;;;;4935597;29;20454;-80
2022/11/03 10:57:05;;;;;;;8.77;3.03;;;14.80;99.90;;;;;;4951979;29;20043;-79
2022/11/03 10:59:33;;;;;;;6.03;2.28;;;14.90;99.90;;;;;;4936415;29;20130;-79
2022/11/03 11:02:00;;;;;;;7.57;2.28;;;15.00;99.90;;;;;;4936508;29;20074;-79
2022/11/03 11:04:26;;;;;;;9.55;2.33;;;15.00;99.90;;;;;;4964483;28;20039;-79
2022/11/03 11:06:52;;;;;;;6.63;2.00;;;15.00;99.90;;;;;;4923081;28;20070;-79
2022/11/03 11:09:25;;;;;;;8.30;2.30;;;15.00;99.90;;;;;;4921896;29;20560;-79
2022/11/03 11:12:02;;;;;;;10.60;2.05;;;15.00;99.90;;;;;;4934057;29;20074;-79
2022/11/03 11:14:28;;;;;;;10.77;2.38;;;15.00;99.90;;;;;;4952576;29;20047;-79
2022/11/03 11:16:59;;;;;;;8.43;2.47;;;15.00;99.90;;;;;;4950931;29;20059;-79
2022/11/03 11:19:27;;;;;;;12.05;2.70;;;15.00;99.90;;;;;;4933039;29;20056;-79
2022/11/03 11:21:52;;;;;;;9.98;2.17;;;14.90;99.90;;;;;;4937790;29;20043;-79
2022/11/03 11:24:43;;;;;;;9.23;2.15;;;15.00;99.90;;;;;;4951902;29;20403;-79
2022/11/03 11:27:30;;;;;;;10.65;2.60;;;15.00;99.90;;;;;;4937538;29;20035;-79
2022/11/03 11:30:03;;;;;;;7.22;2.17;;;15.00;99.90;;;;;;4952842;28;20051;-79
2022/11/03 11:32:38;;;;;;;9.85;2.28;;;15.00;99.90;;;;;;4950962;29;20047;-80
2022/11/03 11:35:09;;;;;;;11.18;1.90;;;15.00;99.90;;;;;;4950071;28;20052;-79
2022/11/03 11:37:36;;;;;;;7.93;2.20;;;14.90;99.90;;;;;;4935898;29;20043;-79
2022/11/03 11:40:14;;;;;;;8.98;2.00;;;14.90;99.90;;;;;;4936831;29;20049;-79
2022/11/03 11:43:09;;;;;;;5.22;1.75;;;14.90;99.90;;;;;;4937244;29;20044;-79
2022/11/03 11:46:12;;;;;;;9.25;2.05;;;14.90;99.90;;;;;;4951727;29;20404;-80
2022/11/03 11:48:38;;;;;;;7.28;2.30;;;14.90;99.90;;;;;;4951867;29;20039;-79
2022/11/03 11:51:09;;;;;;;7.63;2.13;;;14.80;99.90;;;;;;4919731;29;20039;-80
2022/11/03 11:53:43;;;;;;;11.02;2.42;;;14.80;99.90;;;;;;4934603;29;20035;-80
2022/11/03 11:56:11;;;;;;;7.72;2.00;;;14.80;99.90;;;;;;4952345;28;20126;-80
2022/11/03 11:58:51;;;;;;;8.70;2.70;;;14.80;99.90;;;;;;4939211;29;20039;-80
2022/11/03 12:01:35;;;;;;;7.82;2.10;;;14.80;99.90;;;;;;4938807;29;20039;-80
2022/11/03 12:04:16;;;;;;;8.98;2.75;;;14.80;99.90;;;;;;4953787;29;20065;-80
2022/11/03 12:06:42;;;;;;;8.27;2.20;;;14.90;99.90;;;;;;4938643;29;20046;-80
2022/11/03 12:09:16;;;;;;;9.38;2.60;;;14.80;99.90;;;;;;4935747;29;20126;-80
2022/11/03 12:11:50;;;;;;;6.07;1.92;;;14.90;99.90;;;;;;4927988;29;20564;-80
2022/11/03 12:14:36;;;;;;;4.68;2.05;;;14.90;99.90;;;;;;4923713;28;20474;-80
2022/11/03 12:17:17;;;;;;;6.13;2.20;;;14.90;99.90;;;;;;4937487;29;20106;-81
2022/11/03 12:19:54;;;;;;;7.32;2.00;;;14.90;99.90;;;;;;4933246;29;20052;-79
2022/11/03 12:22:22;;;;;;;9.25;2.53;;;15.00;99.90;;;;;;4946543;29;20043;-81
2022/11/03 12:25:07;;;;;;;6.72;2.03;;;15.10;99.90;;;;;;4936334;29;20138;-80
2022/11/03 12:27:33;;;;;;;5.28;2.03;;;15.30;99.90;;;;;;4937340;29;20047;-80
2022/11/03 12:30:11;;;;;;;8.32;2.60;;;15.40;99.90;;;;;;4953130;28;20051;-81
2022/11/03 12:32:36;;;;;;;8.15;2.13;;;15.40;99.90;;;;;;4949246;29;20058;-80
2022/11/03 12:35:04;;;;;;;9.00;2.00;;;15.40;99.90;;;;;;4936373;29;20108;-80
2022/11/03 12:37:30;;;;;;;10.70;2.53;;;15.50;99.90;;;;;;4913512;29;20050;-80
2022/11/03 12:39:55;;;;;;;6.25;2.47;;;15.50;99.90;;;;;;4935431;29;20051;-80
2022/11/03 12:42:23;;;;;;;7.22;2.20;;;15.50;99.90;;;;;;4921506;29;20047;-81
2022/11/03 12:44:49;;;;;;;10.00;2.50;;;15.50;99.90;;;;;;4928193;28;20416;-81
2022/11/03 12:47:15;;;;;;;8.75;2.83;;;15.50;99.90;;;;;;4931844;29;20054;-80
2022/11/03 12:49:41;;;;;;;7.78;2.88;;;15.50;99.90;;;;;;4937565;29;20036;-80
2022/11/03 12:52:07;;;;;;;10.27;2.45;;;15.40;99.90;;;;;;4903778;29;20075;-81
2022/11/03 12:54:33;;;;;;;9.00;2.65;;;15.40;99.90;;;;;;4897132;29;20044;-80
2022/11/03 12:56:59;;;;;;;8.93;2.85;;;15.40;99.90;;;;;;4952619;28;20415;-81
2022/11/03 12:59:24;;;;;;;7.40;2.22;;;15.40;99.90;;;;;;4937142;29;20508;-81
2022/11/03 13:01:50;;;;;;;6.40;2.35;;;15.30;99.90;;;;;;4890106;29;20055;-81
2022/11/03 13:04:16;;;;;;;6.80;1.98;;;15.40;99.90;;;;;;4911605;29;20043;-81
2022/11/03 13:06:42;;;;;;;7.55;2.03;;;15.40;99.90;;;;;;4907481;29;20062;-80
2022/11/03 13:09:07;;;;;;;8.60;2.90;;;15.40;99.90;;;;;;4922464;29;20046;-80
2022/11/03 13:14:17;;;;;;;7.05;2.25;;;15.40;99.90;;;;;;4937724;29;20126;-80
2022/11/03 13:16:43;;;;;;;8.68;2.40;;;15.40;99.90;;;;;;4911552;29;20582;-81
2022/11/03 13:19:09;;;;;;;6.78;2.42;;;15.40;99.90;;;;;;4898803;29;20044;-82
2022/11/03 13:21:36;;;;;;;7.40;2.47;;;15.40;99.90;;;;;;4932622;29;20094;-80